createdAt,value
2023-02-13T00:00:46.980Z,19.40
2023-02-13T00:01:46.978Z,18.30
2023-02-13T00:02:47.030Z,20.60
2023-02-13T00:03:47.030Z,21.10
2023-02-13T00:04:46.994Z,17.70
2023-02-13T00:05:46.943Z,17.30
2023-02-13T00:06:46.891Z,18.80
2023-02-13T00:07:46.899Z,18.30
2023-02-13T00:08:46.918Z,20.50
2023-02-13T00:09:46.852Z,25.40
2023-02-13T00:10:46.844Z,19.20
2023-02-13T00:11:46.864Z,18.60
2023-02-13T00:12:46.848Z,16.00
2023-02-13T00:13:46.834Z,19.80
2023-02-13T00:14:46.831Z,18.50
2023-02-13T00:15:46.822Z,19.60
2023-02-13T00:16:46.781Z,23.20
2023-02-13T00:17:46.817Z,19.80
2023-02-13T00:18:46.760Z,17.80
2023-02-13T00:19:46.743Z,16.40
2023-02-13T00:20:46.747Z,15.70
2023-02-13T00:21:46.698Z,16.00
2023-02-13T00:22:46.725Z,18.50
2023-02-13T00:23:46.700Z,20.60
2023-02-13T00:24:46.761Z,23.70
2023-02-13T00:25:46.669Z,22.00
2023-02-13T00:26:46.668Z,18.80
2023-02-13T00:27:46.651Z,16.80
2023-02-13T00:28:46.632Z,26.70
2023-02-13T00:29:46.636Z,24.20
2023-02-13T00:30:46.775Z,19.20
2023-02-13T00:31:46.703Z,21.50
2023-02-13T00:32:46.570Z,18.60
2023-02-13T00:33:46.572Z,18.60
2023-02-13T00:34:46.515Z,16.80
2023-02-13T00:35:46.574Z,18.90
2023-02-13T00:36:46.527Z,17.90
2023-02-13T00:37:46.496Z,20.80
2023-02-13T00:38:46.465Z,27.60
2023-02-13T00:39:46.459Z,23.00
2023-02-13T00:40:46.465Z,19.40
2023-02-13T00:41:46.475Z,19.80
2023-02-13T00:42:46.454Z,22.00
2023-02-13T00:43:46.456Z,22.90
2023-02-13T00:44:46.395Z,21.50
2023-02-13T00:45:46.402Z,25.30
2023-02-13T00:46:46.436Z,20.40
2023-02-13T00:47:46.405Z,21.70
2023-02-13T00:48:46.346Z,22.90
2023-02-13T00:49:46.339Z,24.40
2023-02-13T00:50:46.331Z,22.00
2023-02-13T00:51:46.293Z,26.10
2023-02-13T00:52:46.282Z,20.90
2023-02-13T00:53:46.323Z,23.80
2023-02-13T00:54:46.313Z,21.90
2023-02-13T00:55:46.233Z,22.90
2023-02-13T00:56:46.253Z,23.20
2023-02-13T00:57:46.221Z,28.10
2023-02-13T00:58:46.299Z,22.10
2023-02-13T00:59:46.219Z,21.90
2023-02-13T01:00:46.193Z,23.20
2023-02-13T01:01:46.210Z,19.40
2023-02-13T01:02:46.158Z,22.00
2023-02-13T01:03:46.260Z,22.90
2023-02-13T01:04:46.160Z,19.00
2023-02-13T01:05:46.136Z,19.70
2023-02-13T01:06:46.104Z,23.80
2023-02-13T01:07:46.096Z,19.50
2023-02-13T01:08:46.088Z,20.50
2023-02-13T01:09:46.062Z,21.80
2023-02-13T01:10:46.105Z,17.70
2023-02-13T01:11:46.077Z,18.70
2023-02-13T01:12:46.018Z,18.60
2023-02-13T01:13:46.011Z,19.30
2023-02-13T01:14:45.992Z,17.50
2023-02-13T01:15:46.044Z,17.30
2023-02-13T01:16:45.995Z,15.20
2023-02-13T01:17:46.002Z,18.20
2023-02-13T01:18:45.952Z,17.50
2023-02-13T01:19:45.937Z,18.20
2023-02-13T01:20:45.919Z,23.00
2023-02-13T01:21:45.944Z,21.50
2023-02-13T01:22:45.915Z,21.10
2023-02-13T01:23:45.910Z,22.40
2023-02-13T01:24:45.856Z,21.20
2023-02-13T01:25:45.863Z,20.70
2023-02-13T01:26:45.849Z,20.10
2023-02-13T01:27:45.838Z,21.70
2023-02-13T01:28:45.857Z,21.90
2023-02-13T01:29:45.831Z,21.20
2023-02-13T01:30:45.814Z,20.40
2023-02-13T01:31:45.894Z,20.20
2023-02-13T01:32:45.794Z,22.50
2023-02-13T01:33:45.772Z,23.20
2023-02-13T01:34:45.761Z,21.00
2023-02-13T01:35:45.738Z,22.00
2023-02-13T01:36:45.707Z,23.40
2023-02-13T01:37:45.753Z,25.00
2023-02-13T01:38:45.705Z,25.30
2023-02-13T01:39:45.655Z,25.10
2023-02-13T01:40:45.669Z,22.10
2023-02-13T01:41:45.663Z,22.60
2023-02-13T01:42:45.639Z,26.90
2023-02-13T01:43:45.641Z,21.60
2023-02-13T01:44:45.656Z,26.10
2023-02-13T01:45:45.588Z,22.30
2023-02-13T01:46:45.659Z,23.80
2023-02-13T01:47:45.619Z,24.60
2023-02-13T01:48:45.568Z,19.00
2023-02-13T01:49:45.547Z,22.60
2023-02-13T01:50:45.506Z,25.80
2023-02-13T01:51:45.507Z,25.00
2023-02-13T01:52:45.530Z,25.20
2023-02-13T01:53:45.476Z,20.80
2023-02-13T01:54:45.474Z,21.50
2023-02-13T01:55:45.481Z,23.70
2023-02-13T01:56:45.451Z,24.10
2023-02-13T01:57:45.415Z,21.60
2023-02-13T01:58:45.413Z,20.50
2023-02-13T01:59:45.416Z,24.20
2023-02-13T02:00:45.405Z,21.50
2023-02-13T02:01:45.470Z,18.10
2023-02-13T02:02:45.399Z,20.90
2023-02-13T02:03:45.355Z,20.30
2023-02-13T02:04:45.323Z,25.10
2023-02-13T02:05:45.353Z,22.30
2023-02-13T02:06:45.306Z,24.30
2023-02-13T02:07:45.291Z,20.30
2023-02-13T02:08:45.275Z,20.00
2023-02-13T02:09:45.276Z,24.40
2023-02-13T02:10:45.282Z,21.80
2023-02-13T02:11:45.287Z,21.20
2023-02-13T02:12:45.238Z,23.50
2023-02-13T02:13:45.250Z,22.00
2023-02-13T02:14:45.203Z,20.30
2023-02-13T02:15:45.240Z,20.90
2023-02-13T02:16:45.190Z,21.80
2023-02-13T02:17:45.186Z,22.20
2023-02-13T02:18:45.157Z,20.60
2023-02-13T02:19:45.163Z,22.20
2023-02-13T02:20:45.123Z,22.70
2023-02-13T02:21:45.126Z,20.70
2023-02-13T02:22:45.097Z,20.50
2023-02-13T02:23:45.120Z,20.90
2023-02-13T02:24:45.112Z,21.50
2023-02-13T02:25:45.055Z,23.80
2023-02-13T02:26:45.043Z,23.30
2023-02-13T02:27:45.027Z,19.50
2023-02-13T02:28:45.074Z,24.90
2023-02-13T02:29:45.039Z,20.00
2023-02-13T02:30:45.062Z,19.20
2023-02-13T02:31:45.021Z,20.20
2023-02-13T02:32:44.969Z,22.20
2023-02-13T02:33:44.969Z,19.60
2023-02-13T02:34:44.970Z,17.80
2023-02-13T02:35:45.022Z,22.90
2023-02-13T02:36:44.912Z,20.80
2023-02-13T02:37:44.906Z,21.00
2023-02-13T02:38:44.886Z,20.90
2023-02-13T02:39:44.873Z,18.50
2023-02-13T02:40:44.881Z,17.50
2023-02-13T02:41:44.904Z,19.00
2023-02-13T02:42:44.828Z,19.10
2023-02-13T02:43:44.818Z,19.30
2023-02-13T02:44:44.831Z,17.80
2023-02-13T02:45:44.875Z,17.20
2023-02-13T02:46:44.901Z,14.80
2023-02-13T02:47:44.843Z,17.40
2023-02-13T02:48:44.756Z,18.40
2023-02-13T02:49:44.776Z,19.00
2023-02-13T02:50:44.734Z,18.30
2023-02-13T02:51:44.714Z,17.20
2023-02-13T02:52:44.734Z,12.80
2023-02-13T02:53:44.700Z,18.20
2023-02-13T02:54:44.670Z,16.30
2023-02-13T02:55:44.676Z,17.00
2023-02-13T02:56:44.671Z,17.50
2023-02-13T02:57:44.642Z,16.40
2023-02-13T02:58:44.618Z,16.50
2023-02-13T02:59:44.659Z,13.90
2023-02-13T03:00:44.616Z,17.40
2023-02-13T03:01:44.578Z,17.10
2023-02-13T03:02:44.566Z,21.40
2023-02-13T03:03:44.566Z,20.70
2023-02-13T03:04:44.555Z,22.40
2023-02-13T03:05:44.577Z,22.60
2023-02-13T03:06:44.550Z,17.00
2023-02-13T03:07:44.496Z,18.80
2023-02-13T03:08:44.506Z,18.20
2023-02-13T03:09:44.508Z,19.60
2023-02-13T03:10:44.476Z,17.40
2023-02-13T03:11:44.474Z,19.70
2023-02-13T03:12:44.434Z,16.10
2023-02-13T03:13:44.428Z,16.20
2023-02-13T03:14:44.450Z,15.40
2023-02-13T03:15:44.436Z,19.40
2023-02-13T03:16:44.447Z,18.00
2023-02-13T03:17:44.386Z,18.40
2023-02-13T03:18:44.352Z,19.60
2023-02-13T03:19:44.329Z,18.90
2023-02-13T03:20:44.344Z,14.30
2023-02-13T03:21:44.369Z,14.90
2023-02-13T03:22:44.300Z,17.90
2023-02-13T03:23:44.298Z,17.00
2023-02-13T03:24:44.287Z,17.50
2023-02-13T03:25:44.267Z,16.30
2023-02-13T03:26:44.273Z,19.50
2023-02-13T03:27:44.262Z,16.60
2023-02-13T03:28:44.224Z,19.60
2023-02-13T03:29:44.236Z,16.80
2023-02-13T03:30:44.231Z,18.60
2023-02-13T03:31:44.195Z,20.40
2023-02-13T03:32:44.186Z,19.50
2023-02-13T03:33:44.155Z,19.60
2023-02-13T03:34:44.145Z,17.60
2023-02-13T03:35:44.157Z,18.10
2023-02-13T03:36:44.133Z,19.80
2023-02-13T03:37:44.112Z,18.60
2023-02-13T03:38:44.102Z,20.40
2023-02-13T03:39:44.082Z,16.10
2023-02-13T03:40:44.071Z,19.00
2023-02-13T03:41:44.084Z,18.90
2023-02-13T03:42:44.032Z,20.30
2023-02-13T03:43:44.033Z,18.70
2023-02-13T03:44:44.022Z,17.60
2023-02-13T03:45:44.084Z,17.80
2023-02-13T03:46:43.980Z,17.00
2023-02-13T03:47:43.980Z,16.30
2023-02-13T03:48:43.961Z,16.20
2023-02-13T03:49:43.975Z,19.80
2023-02-13T03:50:43.950Z,16.10
2023-02-13T03:51:43.949Z,16.30
2023-02-13T03:52:43.899Z,19.80
2023-02-13T03:53:43.932Z,19.90
2023-02-13T03:54:43.887Z,19.00
2023-02-13T03:55:43.880Z,18.50
2023-02-13T03:56:43.863Z,18.20
2023-02-13T03:57:43.849Z,17.70
2023-02-13T03:58:43.839Z,17.50
2023-02-13T03:59:43.836Z,18.10
2023-02-13T04:00:43.941Z,19.50
2023-02-13T04:01:43.816Z,19.10
2023-02-13T04:02:43.769Z,19.90
2023-02-13T04:03:43.783Z,18.40
2023-02-13T04:04:43.753Z,18.30
2023-02-13T04:05:43.755Z,17.40
2023-02-13T04:06:43.737Z,22.10
2023-02-13T04:07:43.751Z,19.40
2023-02-13T04:08:43.722Z,19.00
2023-02-13T04:09:43.688Z,18.30
2023-02-13T04:10:43.672Z,18.60
2023-02-13T04:11:43.685Z,17.80
2023-02-13T04:12:43.659Z,16.90
2023-02-13T04:13:43.644Z,14.80
2023-02-13T04:14:43.640Z,17.60
2023-02-13T04:15:43.591Z,15.60
2023-02-13T04:16:43.617Z,16.00
2023-02-13T04:17:43.596Z,16.80
2023-02-13T04:18:43.582Z,15.90
2023-02-13T04:19:43.548Z,15.70
2023-02-13T04:20:43.601Z,15.90
2023-02-13T04:21:43.516Z,13.90
2023-02-13T04:22:43.518Z,18.60
2023-02-13T04:23:43.535Z,17.80
2023-02-13T04:24:43.486Z,18.10
2023-02-13T04:25:43.476Z,17.00
2023-02-13T04:26:43.469Z,16.40
2023-02-13T04:27:43.441Z,17.30
2023-02-13T04:28:43.428Z,19.80
2023-02-13T04:29:43.483Z,18.00
2023-02-13T04:30:43.494Z,17.20
2023-02-13T04:31:43.508Z,18.30
2023-02-13T04:32:43.373Z,15.60
2023-02-13T04:33:43.380Z,18.20
2023-02-13T04:34:43.345Z,17.30
2023-02-13T04:35:43.368Z,18.90
2023-02-13T04:36:43.336Z,21.00
2023-02-13T04:37:43.340Z,21.50
2023-02-13T04:38:43.374Z,19.10
2023-02-13T04:39:43.312Z,18.10
2023-02-13T04:40:43.275Z,19.50
2023-02-13T04:41:43.307Z,17.00
2023-02-13T04:42:43.273Z,18.20
2023-02-13T04:43:43.257Z,18.40
2023-02-13T04:44:43.219Z,15.50
2023-02-13T04:45:43.226Z,18.70
2023-02-13T04:46:43.237Z,17.00
2023-02-13T04:47:43.210Z,16.50
2023-02-13T04:48:43.197Z,15.30
2023-02-13T04:49:43.150Z,14.10
2023-02-13T04:50:43.149Z,16.90
2023-02-13T04:51:43.166Z,16.50
2023-02-13T04:52:43.188Z,15.20
2023-02-13T04:53:43.142Z,16.20
2023-02-13T04:54:43.126Z,17.90
2023-02-13T04:55:43.072Z,17.20
2023-02-13T04:56:43.090Z,17.60
2023-02-13T04:57:43.045Z,18.80
2023-02-13T04:58:43.074Z,20.70
2023-02-13T04:59:43.053Z,17.90
2023-02-13T05:00:42.994Z,16.80
2023-02-13T05:01:43.074Z,18.10
2023-02-13T05:02:42.985Z,19.10
2023-02-13T05:03:42.973Z,19.20
2023-02-13T05:04:43.000Z,20.90
2023-02-13T05:05:42.998Z,20.10
2023-02-13T05:06:42.976Z,21.50
2023-02-13T05:07:42.910Z,17.30
2023-02-13T05:08:42.899Z,19.40
2023-02-13T05:09:42.898Z,16.20
2023-02-13T05:10:43.036Z,22.90
2023-02-13T05:11:42.889Z,19.20
2023-02-13T05:12:42.852Z,21.30
2023-02-13T05:13:42.849Z,22.20
2023-02-13T05:14:42.845Z,19.00
2023-02-13T05:15:42.852Z,18.80
2023-02-13T05:16:42.827Z,21.20
2023-02-13T05:17:42.838Z,23.50
2023-02-13T05:18:42.795Z,18.60
2023-02-13T05:19:42.751Z,18.50
2023-02-13T05:20:42.743Z,20.30
2023-02-13T05:21:42.767Z,18.40
2023-02-13T05:22:42.733Z,21.20
2023-02-13T05:23:42.766Z,22.30
2023-02-13T05:24:42.682Z,18.40
2023-02-13T05:25:42.670Z,17.50
2023-02-13T05:26:42.671Z,17.00
2023-02-13T05:27:42.671Z,18.10
2023-02-13T05:28:42.710Z,17.70
2023-02-13T05:29:42.657Z,19.80
2023-02-13T05:30:42.649Z,19.10
2023-02-13T05:31:42.701Z,21.40
2023-02-13T05:32:42.613Z,20.20
2023-02-13T05:33:42.580Z,16.60
2023-02-13T05:34:42.605Z,17.80
2023-02-13T05:35:42.573Z,19.50
2023-02-13T05:36:42.540Z,16.90
2023-02-13T05:37:42.550Z,18.80
2023-02-13T05:38:42.555Z,19.00
2023-02-13T05:39:42.525Z,19.30
2023-02-13T05:40:42.491Z,18.90
2023-02-13T05:41:42.491Z,20.40
2023-02-13T05:42:42.452Z,22.70
2023-02-13T05:43:42.464Z,20.30
2023-02-13T05:44:42.472Z,20.40
2023-02-13T05:45:42.412Z,20.30
2023-02-13T05:46:42.477Z,19.20
2023-02-13T05:47:42.404Z,18.10
2023-02-13T05:48:42.397Z,16.80
2023-02-13T05:49:42.407Z,18.70
2023-02-13T05:50:42.383Z,21.90
2023-02-13T05:51:42.341Z,24.00
2023-02-13T05:52:42.321Z,20.40
2023-02-13T05:53:42.361Z,20.10
2023-02-13T05:54:42.314Z,18.00
2023-02-13T05:55:42.303Z,19.00
2023-02-13T05:56:42.303Z,19.40
2023-02-13T05:57:42.262Z,17.90
2023-02-13T05:58:42.240Z,16.70
2023-02-13T05:59:42.325Z,18.50
2023-02-13T06:00:42.216Z,18.60
2023-02-13T06:01:42.204Z,19.20
2023-02-13T06:02:42.214Z,20.70
2023-02-13T06:03:42.209Z,19.20
2023-02-13T06:04:42.158Z,17.90
2023-02-13T06:05:42.184Z,18.70
2023-02-13T06:06:42.136Z,19.50
2023-02-13T06:07:42.140Z,17.80
2023-02-13T06:08:42.128Z,16.60
2023-02-13T06:09:42.104Z,18.20
2023-02-13T06:10:44.296Z,17.20
2023-02-13T06:11:42.125Z,17.70
2023-02-13T06:12:42.042Z,18.30
2023-02-13T06:13:42.045Z,17.10
2023-02-13T06:14:42.045Z,16.60
2023-02-13T06:15:42.081Z,16.20
2023-02-13T06:16:42.015Z,17.70
2023-02-13T06:17:42.034Z,17.30
2023-02-13T06:18:41.995Z,17.60
2023-02-13T06:19:42.014Z,16.70
2023-02-13T06:20:41.980Z,18.10
2023-02-13T06:21:41.959Z,16.30
2023-02-13T06:22:41.933Z,17.00
2023-02-13T06:23:41.922Z,17.20
2023-02-13T06:24:41.897Z,17.90
2023-02-13T06:25:41.968Z,15.90
2023-02-13T06:26:41.875Z,16.90
2023-02-13T06:27:41.854Z,21.30
2023-02-13T06:28:41.925Z,14.70
2023-02-13T06:29:41.848Z,13.90
2023-02-13T06:30:41.855Z,16.80
2023-02-13T06:31:41.896Z,24.90
2023-02-13T06:32:42.407Z,40.50
2023-02-13T06:33:41.784Z,40.70
2023-02-13T06:34:41.824Z,18.00
2023-02-13T06:35:41.798Z,16.10
2023-02-13T06:36:41.772Z,17.40
2023-02-13T06:37:41.732Z,17.10
2023-02-13T06:38:41.721Z,15.10
2023-02-13T06:39:41.711Z,18.80
2023-02-13T06:40:41.710Z,19.90
2023-02-13T06:41:41.721Z,15.20
2023-02-13T06:42:41.660Z,13.80
2023-02-13T06:43:41.963Z,15.10
2023-02-13T06:44:41.623Z,16.60
2023-02-13T06:45:41.637Z,15.60
2023-02-13T06:46:41.697Z,17.40
2023-02-13T06:47:41.621Z,17.00
2023-02-13T06:48:41.578Z,18.80
2023-02-13T06:49:41.560Z,17.90
2023-02-13T06:50:41.627Z,18.00
2023-02-13T06:51:41.688Z,16.00
2023-02-13T06:52:41.529Z,14.50
2023-02-13T06:53:41.566Z,18.10
2023-02-13T06:54:47.719Z,15.10
2023-02-13T06:55:42.498Z,15.10
2023-02-13T06:56:41.479Z,16.40
2023-02-13T06:57:41.494Z,14.70
2023-02-13T06:58:41.490Z,14.90
2023-02-13T06:59:41.463Z,14.60
2023-02-13T07:00:41.546Z,15.00
2023-02-13T07:01:41.550Z,14.90
2023-02-13T07:02:41.488Z,17.20
2023-02-13T07:03:41.398Z,14.80
2023-02-13T07:04:41.407Z,14.20
2023-02-13T07:05:41.379Z,16.90
2023-02-13T07:06:41.352Z,14.00
2023-02-13T07:07:41.420Z,17.20
2023-02-13T07:08:41.399Z,15.70
2023-02-13T07:09:41.297Z,16.40
2023-02-13T07:10:41.289Z,13.70
2023-02-13T07:11:41.510Z,18.00
2023-02-13T07:12:41.302Z,20.90
2023-02-13T07:13:41.266Z,16.20
2023-02-13T07:14:41.233Z,16.10
2023-02-13T07:15:41.222Z,17.40
2023-02-13T07:16:41.214Z,15.40
2023-02-13T07:17:41.256Z,17.20
2023-02-13T07:18:41.207Z,16.40
2023-02-13T07:19:41.206Z,16.10
2023-02-13T07:20:41.179Z,15.50
2023-02-13T07:21:41.157Z,14.70
2023-02-13T07:22:41.151Z,17.20
2023-02-13T07:23:41.173Z,15.80
2023-02-13T07:24:41.155Z,18.20
2023-02-13T07:25:41.521Z,13.60
2023-02-13T07:26:41.077Z,17.80
2023-02-13T07:27:42.258Z,17.50
2023-02-13T07:28:41.227Z,17.70
2023-02-13T07:29:41.055Z,17.00
2023-02-13T07:30:41.038Z,16.90
2023-02-13T07:31:41.063Z,15.30
2023-02-13T07:32:41.038Z,15.80
2023-02-13T07:33:41.040Z,14.90
2023-02-13T07:34:52.209Z,14.10
2023-02-13T07:35:42.002Z,14.40
2023-02-13T07:36:41.000Z,12.70
2023-02-13T07:37:40.980Z,19.90
2023-02-13T07:38:40.936Z,16.00
2023-02-13T07:39:40.921Z,13.20
2023-02-13T07:40:40.935Z,14.20
2023-02-13T07:41:40.972Z,14.10
2023-02-13T07:42:40.903Z,14.80
2023-02-13T07:43:40.880Z,14.10
2023-02-13T07:44:40.850Z,13.80
2023-02-13T07:45:40.863Z,12.90
2023-02-13T07:46:40.872Z,15.20
2023-02-13T07:47:40.824Z,15.60
2023-02-13T07:48:40.831Z,15.20
2023-02-13T07:49:40.819Z,13.50
2023-02-13T07:50:40.790Z,13.60
2023-02-13T07:51:40.762Z,13.10
2023-02-13T07:52:40.804Z,14.00
2023-02-13T07:53:40.759Z,12.60
2023-02-13T07:54:40.721Z,15.00
2023-02-13T07:55:40.704Z,13.80
2023-02-13T07:56:40.707Z,14.70
2023-02-13T07:57:40.713Z,12.60
2023-02-13T07:58:40.744Z,12.70
2023-02-13T07:59:40.733Z,15.40
2023-02-13T08:00:40.648Z,12.60
2023-02-13T08:01:40.658Z,12.10
2023-02-13T08:02:40.610Z,13.90
2023-02-13T08:03:40.701Z,13.70
2023-02-13T08:04:40.591Z,13.20
2023-02-13T08:05:40.591Z,15.50
2023-02-13T08:06:40.571Z,12.20
2023-02-13T08:07:40.590Z,14.00
2023-02-13T08:08:40.581Z,16.60
2023-02-13T08:09:40.984Z,12.90
2023-02-13T08:10:40.506Z,11.90
2023-02-13T08:11:40.642Z,12.90
2023-02-13T08:12:40.525Z,12.90
2023-02-13T08:13:40.472Z,15.10
2023-02-13T08:14:40.461Z,15.80
2023-02-13T08:15:40.486Z,12.70
2023-02-13T08:16:40.714Z,11.10
2023-02-13T08:17:40.559Z,15.00
2023-02-13T08:18:40.397Z,13.00
2023-02-13T08:19:40.443Z,11.50
2023-02-13T08:20:40.387Z,13.40
2023-02-13T08:21:40.384Z,13.70
2023-02-13T08:22:40.387Z,11.90
2023-02-13T08:23:40.380Z,13.60
2023-02-13T08:24:40.335Z,14.50
2023-02-13T08:25:40.318Z,11.60
2023-02-13T08:26:40.332Z,12.40
2023-02-13T08:27:40.285Z,14.10
2023-02-13T08:28:40.395Z,11.30
2023-02-13T08:29:40.274Z,12.80
2023-02-13T08:30:40.370Z,13.70
2023-02-13T08:31:40.290Z,13.50
2023-02-13T08:32:53.472Z,14.00
2023-02-13T08:33:41.202Z,13.30
2023-02-13T08:34:40.222Z,11.00
2023-02-13T08:35:40.194Z,12.60
2023-02-13T08:36:40.264Z,14.80
2023-02-13T08:37:40.140Z,16.40
2023-02-13T08:39:40.158Z,12.10
2023-02-13T08:40:40.185Z,13.70
2023-02-13T08:41:40.676Z,12.50
2023-02-13T08:42:40.084Z,15.40
2023-02-13T08:43:40.062Z,10.80
2023-02-13T08:44:40.061Z,10.90
2023-02-13T08:45:40.119Z,13.00
2023-02-13T08:46:40.237Z,14.20
2023-02-13T08:47:40.056Z,14.20
2023-02-13T08:48:40.019Z,12.60
2023-02-13T08:49:44.859Z,13.70
2023-02-13T08:50:41.432Z,11.90
2023-02-13T08:51:40.377Z,12.20
2023-02-13T08:52:40.004Z,11.50
2023-02-13T08:53:40.025Z,17.60
2023-02-13T08:54:39.915Z,15.40
2023-02-13T08:55:39.914Z,11.30
2023-02-13T08:56:39.915Z,14.10
2023-02-13T08:57:39.926Z,15.10
2023-02-13T08:58:40.034Z,13.90
2023-02-13T08:59:40.534Z,13.50
2023-02-13T09:00:39.944Z,14.20
2023-02-13T09:01:39.888Z,13.00
2023-02-13T09:02:40.092Z,16.10
2023-02-13T09:03:39.816Z,17.40
2023-02-13T09:04:39.804Z,14.90
2023-02-13T09:05:40.206Z,18.20
2023-02-13T09:06:39.978Z,18.50
2023-02-13T09:07:40.605Z,14.20
2023-02-13T09:08:43.793Z,19.60
2023-02-13T09:09:39.844Z,22.50
2023-02-13T09:10:39.745Z,16.00
2023-02-13T09:11:39.726Z,16.40
2023-02-13T09:12:39.755Z,14.70
2023-02-13T09:13:39.706Z,15.30
2023-02-13T09:14:39.653Z,15.50
2023-02-13T09:15:39.673Z,16.50
2023-02-13T09:16:39.727Z,17.40
2023-02-13T09:17:39.700Z,15.70
2023-02-13T09:18:39.617Z,21.00
2023-02-13T09:19:39.658Z,22.60
2023-02-13T09:20:39.668Z,18.70
2023-02-13T09:21:39.564Z,14.80
2023-02-13T09:22:39.554Z,17.50
2023-02-13T09:23:39.571Z,15.90
2023-02-13T09:24:39.538Z,15.50
2023-02-13T09:25:39.595Z,17.20
2023-02-13T09:26:39.503Z,17.00
2023-02-13T09:27:39.519Z,14.90
2023-02-13T09:28:39.608Z,17.40
2023-02-13T09:29:39.536Z,15.40
2023-02-13T09:30:39.561Z,17.20
2023-02-13T09:31:39.591Z,19.00
2023-02-13T09:32:39.459Z,14.10
2023-02-13T09:33:39.428Z,18.50
2023-02-13T09:34:39.418Z,17.90
2023-02-13T09:35:39.416Z,14.10
2023-02-13T09:36:39.379Z,14.10
2023-02-13T09:37:39.427Z,15.60
2023-02-13T09:38:39.376Z,16.10
2023-02-13T09:39:39.359Z,14.40
2023-02-13T09:40:39.311Z,18.40
2023-02-13T09:41:39.342Z,15.00
2023-02-13T09:42:39.312Z,16.80
2023-02-13T09:43:39.275Z,13.70
2023-02-13T09:44:39.289Z,17.00
2023-02-13T09:45:39.252Z,13.70
2023-02-13T09:46:39.314Z,14.60
2023-02-13T09:47:39.274Z,14.10
2023-02-13T09:48:39.261Z,12.70
2023-02-13T09:49:39.208Z,15.00
2023-02-13T09:50:39.182Z,16.00
2023-02-13T09:51:39.178Z,15.20
2023-02-13T09:52:39.149Z,17.30
2023-02-13T09:53:39.170Z,15.80
2023-02-13T09:54:39.108Z,14.80
2023-02-13T09:55:39.108Z,14.20
2023-02-13T09:56:39.139Z,15.10
2023-02-13T09:57:39.102Z,21.80
2023-02-13T09:58:39.088Z,16.30
2023-02-13T09:59:39.103Z,17.70
2023-02-13T10:00:39.059Z,14.10
2023-02-13T10:01:39.160Z,16.20
2023-02-13T10:02:39.174Z,14.20
2023-02-13T10:03:39.011Z,13.40
2023-02-13T10:04:39.092Z,15.00
2023-02-13T10:05:39.028Z,16.60
2023-02-13T10:06:38.958Z,15.20
2023-02-13T10:07:38.955Z,15.40
2023-02-13T10:08:38.955Z,17.40
2023-02-13T10:09:38.929Z,12.70
2023-02-13T10:10:38.947Z,12.10
2023-02-13T10:11:38.940Z,14.20
2023-02-13T10:12:38.914Z,13.70
2023-02-13T10:13:39.294Z,15.00
2023-02-13T10:14:38.923Z,13.40
2023-02-13T10:15:38.890Z,14.10
2023-02-13T10:16:38.849Z,16.10
2023-02-13T10:17:38.846Z,13.90
2023-02-13T10:18:38.808Z,15.20
2023-02-13T10:19:38.846Z,15.70
2023-02-13T10:20:38.796Z,13.50
2023-02-13T10:21:38.809Z,17.70
2023-02-13T10:22:38.772Z,15.70
2023-02-13T10:23:38.788Z,15.60
2023-02-13T10:24:38.786Z,15.00
2023-02-13T10:25:38.759Z,14.60
2023-02-13T10:26:38.704Z,14.50
2023-02-13T10:27:38.703Z,15.60
2023-02-13T10:28:38.766Z,14.70
2023-02-13T10:29:38.681Z,17.20
2023-02-13T10:30:38.660Z,14.80
2023-02-13T10:31:38.815Z,15.60
2023-02-13T10:32:38.649Z,15.70
2023-02-13T10:33:38.610Z,15.60
2023-02-13T10:34:38.661Z,13.90
2023-02-13T10:35:38.625Z,14.30
2023-02-13T10:36:38.575Z,14.70
2023-02-13T10:37:38.574Z,16.20
2023-02-13T10:38:38.536Z,14.40
2023-02-13T10:39:38.549Z,16.60
2023-02-13T10:40:38.507Z,13.90
2023-02-13T10:41:38.536Z,17.50
2023-02-13T10:42:38.527Z,15.30
2023-02-13T10:43:38.464Z,13.50
2023-02-13T10:44:38.486Z,13.70
2023-02-13T10:45:38.467Z,16.60
2023-02-13T10:46:38.525Z,19.30
2023-02-13T10:47:38.471Z,17.40
2023-02-13T10:48:38.403Z,14.20
2023-02-13T10:49:38.437Z,13.40
2023-02-13T10:50:38.384Z,15.60
2023-02-13T10:51:38.418Z,13.90
2023-02-13T10:52:38.367Z,16.80
2023-02-13T10:53:38.373Z,30.40
2023-02-13T10:54:38.342Z,26.80
2023-02-13T10:55:38.317Z,23.00
2023-02-13T10:56:38.314Z,14.80
2023-02-13T10:57:38.309Z,16.40
2023-02-13T10:58:38.284Z,14.80
2023-02-13T10:59:38.272Z,19.60
2023-02-13T11:00:38.243Z,17.60
2023-02-13T11:01:38.280Z,16.80
2023-02-13T11:02:38.232Z,17.70
2023-02-13T11:03:38.228Z,15.70
2023-02-13T11:04:38.254Z,16.90
2023-02-13T11:05:38.192Z,14.40
2023-02-13T11:06:38.160Z,17.80
2023-02-13T11:07:39.631Z,12.80
2023-02-13T11:08:38.163Z,16.70
2023-02-13T11:09:38.285Z,16.00
2023-02-13T11:10:38.127Z,14.60
2023-02-13T11:11:38.132Z,13.80
2023-02-13T11:12:38.078Z,16.60
2023-02-13T11:13:38.111Z,18.90
2023-02-13T11:14:38.076Z,15.10
2023-02-13T11:15:38.168Z,16.10
2023-02-13T11:16:38.104Z,15.20
2023-02-13T11:17:38.054Z,16.90
2023-02-13T11:18:58.997Z,15.80
2023-02-13T11:19:38.023Z,16.30
2023-02-13T11:20:38.016Z,20.20
2023-02-13T11:21:38.003Z,19.40
2023-02-13T11:22:37.946Z,18.60
2023-02-13T11:23:37.958Z,17.90
2023-02-13T11:24:37.945Z,14.60
2023-02-13T11:25:37.937Z,15.40
2023-02-13T11:26:37.938Z,13.10
2023-02-13T11:27:37.931Z,15.30
2023-02-13T11:28:37.915Z,15.70
2023-02-13T11:29:37.884Z,12.90
2023-02-13T11:30:37.840Z,14.50
2023-02-13T11:31:37.968Z,12.40
2023-02-13T11:32:37.837Z,10.60
2023-02-13T11:33:37.874Z,13.20
2023-02-13T11:34:38.112Z,10.40
2023-02-13T11:35:37.804Z,12.20
2023-02-13T11:36:37.796Z,15.70
2023-02-13T11:37:37.794Z,13.30
2023-02-13T11:38:38.027Z,10.80
2023-02-13T11:39:37.725Z,12.60
2023-02-13T11:40:37.697Z,17.80
2023-02-13T11:41:37.706Z,15.90
2023-02-13T11:42:37.713Z,17.90
2023-02-13T11:43:37.677Z,15.60
2023-02-13T11:44:37.725Z,15.60
2023-02-13T11:45:37.647Z,18.20
2023-02-13T11:46:37.687Z,13.20
2023-02-13T11:47:37.646Z,13.30
2023-02-13T11:48:37.615Z,15.50
2023-02-13T11:49:37.627Z,13.10
2023-02-13T11:50:37.587Z,11.90
2023-02-13T11:51:37.553Z,11.40
2023-02-13T11:52:37.571Z,11.90
2023-02-13T11:53:37.564Z,11.40
2023-02-13T11:54:37.543Z,11.70
2023-02-13T11:55:37.513Z,11.60
2023-02-13T11:56:42.624Z,13.50
2023-02-13T11:57:38.475Z,14.20
2023-02-13T11:58:37.513Z,14.40
2023-02-13T11:59:37.484Z,13.00
2023-02-13T12:00:37.580Z,13.60
2023-02-13T12:01:37.468Z,15.20
2023-02-13T12:02:37.559Z,13.40
2023-02-13T12:03:37.535Z,14.80
2023-02-13T12:04:37.411Z,15.70
2023-02-13T12:05:37.400Z,12.00
2023-02-13T12:06:37.398Z,13.70
2023-02-13T12:07:37.422Z,12.00
2023-02-13T12:08:37.373Z,12.00
2023-02-13T12:09:37.321Z,15.30
2023-02-13T12:10:37.303Z,13.40
2023-02-13T12:11:37.301Z,16.30
2023-02-13T12:12:37.282Z,14.50
2023-02-13T12:13:37.292Z,12.70
2023-02-13T12:14:37.259Z,13.60
2023-02-13T12:15:37.273Z,11.80
2023-02-13T12:16:37.276Z,11.00
2023-02-13T12:17:37.290Z,9.90
2023-02-13T12:18:37.300Z,11.40
2023-02-13T12:19:37.220Z,9.60
2023-02-13T12:20:37.208Z,9.90
2023-02-13T12:21:37.200Z,11.70
2023-02-13T12:22:37.156Z,9.90
2023-02-13T12:23:37.182Z,12.10
2023-02-13T12:24:37.145Z,10.40
2023-02-13T12:25:37.134Z,9.50
2023-02-13T12:26:37.132Z,10.90
2023-02-13T12:27:37.117Z,12.90
2023-02-13T12:29:37.128Z,13.00
2023-02-13T12:30:37.121Z,8.20
2023-02-13T12:31:37.094Z,11.10
2023-02-13T12:32:37.029Z,9.60
2023-02-13T12:33:37.014Z,9.50
2023-02-13T12:34:37.002Z,10.00
2023-02-13T12:35:37.026Z,9.50
2023-02-13T12:36:37.002Z,10.60
2023-02-13T12:37:36.952Z,10.20
2023-02-13T12:38:36.947Z,9.50
2023-02-13T12:39:36.951Z,10.30
2023-02-13T12:40:36.916Z,10.00
2023-02-13T12:41:36.957Z,13.50
2023-02-13T12:42:36.934Z,11.50
2023-02-13T12:43:36.943Z,11.30
2023-02-13T12:44:36.878Z,9.80
2023-02-13T12:45:36.939Z,11.00
2023-02-13T12:46:39.723Z,10.30
2023-02-13T12:47:36.837Z,11.00
2023-02-13T12:48:36.848Z,9.80
2023-02-13T12:49:36.802Z,9.40
2023-02-13T12:50:36.816Z,11.60
2023-02-13T12:51:36.789Z,13.80
2023-02-13T12:52:36.746Z,11.40
2023-02-13T12:53:36.779Z,11.80
2023-02-13T12:54:36.733Z,11.60
2023-02-13T12:55:36.728Z,12.20